Time;durP1;ratioP1;P1;durP2;ratioP2;P2;SDS_P1;SDS_P2;PMS_P1;PMS_P2;Temp;Humidity;BMP_temperature;BMP_pressure;BME280_temperature;BME280_humidity;BME280_pressure;Samples;Min_cycle;Max_cycle;Signal;HPM_P1;HPM_P2
2023/01/31 00:00:46;;;;;;;88.45;85.05;;;9.40;96.50;;;;;;5048025;28;20037;-76
2023/01/31 00:03:12;;;;;;;91.70;88.20;;;9.40;96.50;;;;;;5046722;28;20055;-76
2023/01/31 00:05:37;;;;;;;89.97;86.47;;;9.40;96.50;;;;;;5047261;28;20037;-76
2023/01/31 00:08:03;;;;;;;87.25;83.85;;;9.50;96.60;;;;;;5047217;28;20086;-76
2023/01/31 00:10:29;;;;;;;89.50;86.10;;;9.50;96.60;;;;;;5030304;28;20113;-76
2023/01/31 00:12:56;;;;;;;88.88;85.47;;;9.50;96.60;;;;;;5046741;28;20769;-76
2023/01/31 00:15:22;;;;;;;90.10;86.70;;;9.60;96.60;;;;;;5046948;28;20489;-77
2023/01/31 00:17:48;;;;;;;89.30;85.90;;;9.60;96.60;;;;;;5048071;28;20035;-76
2023/01/31 00:20:14;;;;;;;87.60;84.30;;;9.60;96.60;;;;;;5029366;28;20158;-76
2023/01/31 00:22:39;;;;;;;85.88;82.68;;;9.60;96.60;;;;;;5030046;28;20036;-76
2023/01/31 00:25:05;;;;;;;88.20;84.90;;;9.60;96.60;;;;;;5046703;28;20036;-76
2023/01/31 00:27:31;;;;;;;89.35;85.97;;;9.70;96.60;;;;;;5046612;28;20083;-76
2023/01/31 00:29:57;;;;;;;85.85;82.65;;;9.70;96.60;;;;;;5047837;28;20045;-77
2023/01/31 00:32:25;;;;;;;93.10;89.60;;;9.70;96.60;;;;;;5030146;28;20119;-76
2023/01/31 00:34:52;;;;;;;86.00;82.80;;;9.80;96.60;;;;;;5046436;28;20397;-78
2023/01/31 00:37:18;;;;;;;86.85;83.65;;;9.80;96.60;;;;;;5029886;28;20033;-78
2023/01/31 00:39:44;;;;;;;86.10;82.90;;;9.80;96.60;;;;;;5047933;28;20040;-78
2023/01/31 00:42:10;;;;;;;87.30;84.00;;;9.80;96.60;;;;;;5047815;28;20033;-78
2023/01/31 00:44:36;;;;;;;87.25;83.95;;;9.80;96.60;;;;;;5030037;28;20466;-78
2023/01/31 00:47:01;;;;;;;85.75;82.55;;;9.80;96.60;;;;;;5029660;28;20481;-78
2023/01/31 00:49:27;;;;;;;90.05;86.70;;;9.90;96.70;;;;;;5047605;28;20032;-78
2023/01/31 00:51:53;;;;;;;84.30;81.15;;;9.90;96.70;;;;;;5046291;28;20033;-79
2023/01/31 00:54:19;;;;;;;87.63;84.32;;;9.90;96.70;;;;;;5029681;28;20048;-78
2023/01/31 00:56:45;;;;;;;89.25;85.95;;;9.90;96.60;;;;;;5045870;28;20087;-71
2023/01/31 00:59:11;;;;;;;84.78;81.57;;;9.90;96.70;;;;;;5047453;28;20031;-78
2023/01/31 01:01:37;;;;;;;89.70;86.30;;;9.90;96.70;;;;;;5046126;28;20411;-78
2023/01/31 01:04:03;;;;;;;87.25;83.97;;;10.00;96.70;;;;;;5046261;28;20025;-78
2023/01/31 01:06:28;;;;;;;89.90;86.53;;;10.00;96.70;;;;;;5029404;28;20032;-78
2023/01/31 01:08:58;;;;;;;91.57;88.15;;;10.00;96.70;;;;;;5047483;28;20025;-78
2023/01/31 01:11:29;;;;;;;98.93;95.18;;;10.00;96.60;;;;;;5030130;28;20413;-78
2023/01/31 01:13:57;;;;;;;96.75;93.13;;;10.00;96.60;;;;;;5047340;28;20134;-78
2023/01/31 01:16:26;;;;;;;97.78;94.07;;;10.00;96.60;;;;;;5029565;28;20119;-78
2023/01/31 01:18:53;;;;;;;96.80;93.10;;;9.90;96.60;;;;;;5045982;28;20032;-78
2023/01/31 01:21:22;;;;;;;96.50;92.88;;;9.90;96.60;;;;;;5045815;28;20493;-78
2023/01/31 01:23:49;;;;;;;107.35;103.22;;;9.90;96.70;;;;;;5045819;28;20074;-78
2023/01/31 01:26:19;;;;;;;;;;;9.90;96.60;;;;;;5046443;28;20021;-78
2023/01/31 01:28:45;;;;;;;124.40;119.50;;;9.90;96.60;;;;;;5047268;28;19904;-79
2023/01/31 01:31:12;;;;;;;132.13;126.93;;;9.80;96.50;;;;;;5029499;28;20033;-78
2023/01/31 01:33:38;;;;;;;136.90;131.40;;;9.80;96.50;;;;;;5031966;28;20037;-78
2023/01/31 01:36:06;;;;;;;140.90;135.20;;;9.70;96.50;;;;;;5049637;28;20029;-78
2023/01/31 01:38:36;;;;;;;144.38;138.48;;;9.60;96.50;;;;;;5051068;28;20025;-78
2023/01/31 01:41:03;;;;;;;144.35;138.45;;;9.60;96.50;;;;;;5049897;28;20029;-78
2023/01/31 01:43:58;;;;;;;145.90;139.95;;;9.60;96.50;;;;;;5050995;28;20028;-78
2023/01/31 01:46:29;;;;;;;150.18;143.98;;;9.60;96.60;;;;;;5045162;28;20064;-78
2023/01/31 01:49:13;;;;;;;152.32;146.02;;;9.50;96.50;;;;;;5049482;28;20056;-78
2023/01/31 01:51:41;;;;;;;150.45;144.27;;;9.50;96.60;;;;;;5050881;28;20453;-78
2023/01/31 01:54:11;;;;;;;151.82;145.55;;;9.50;96.50;;;;;;5049433;28;20029;-78
2023/01/31 01:56:40;;;;;;;150.38;144.18;;;9.50;96.60;;;;;;5049050;28;20456;-78
2023/01/31 01:59:33;;;;;;;150.45;144.25;;;9.50;96.60;;;;;;5050749;28;20021;-78
2023/01/31 02:02:00;;;;;;;150.70;144.45;;;9.50;96.60;;;;;;5048900;28;20124;-78
2023/01/31 02:04:31;;;;;;;147.43;141.32;;;9.50;96.60;;;;;;5049337;28;20162;-78
2023/01/31 02:06:59;;;;;;;147.90;141.82;;;9.60;96.60;;;;;;5049176;28;20033;-78
2023/01/31 02:09:35;;;;;;;146.48;140.45;;;9.60;96.60;;;;;;5049136;28;20489;-78
2023/01/31 02:12:00;;;;;;;151.82;145.52;;;9.50;96.60;;;;;;5049291;28;20526;-78
2023/01/31 02:14:26;;;;;;;152.43;146.13;;;9.60;96.60;;;;;;5032349;28;20127;-78
2023/01/31 02:16:52;;;;;;;152.57;146.18;;;9.60;96.60;;;;;;5050332;28;20126;-78
2023/01/31 02:19:44;;;;;;;154.07;147.65;;;9.60;96.60;;;;;;5049012;28;20231;-78
2023/01/31 02:22:22;;;;;;;155.32;148.82;;;9.60;96.60;;;;;;5050174;28;20603;-78
2023/01/31 02:25:10;;;;;;;158.57;151.98;;;9.60;96.60;;;;;;5049109;28;20035;-78
2023/01/31 02:27:57;;;;;;;156.38;149.77;;;9.50;96.60;;;;;;5050136;28;20025;-78
2023/01/31 02:30:47;;;;;;;157.75;151.05;;;9.60;96.60;;;;;;5048571;28;20033;-78
2023/01/31 02:33:22;;;;;;;159.82;153.02;;;9.50;96.60;;;;;;5050104;28;20477;-78
2023/01/31 02:36:41;;;;;;;148.20;141.80;;;9.50;96.60;;;;;;5049970;28;20040;-78
2023/01/31 02:39:38;;;;;;;150.73;144.23;;;9.50;96.60;;;;;;5047201;28;20029;-78
2023/01/31 02:42:22;;;;;;;152.80;146.30;;;9.40;96.60;;;;;;5047400;28;20548;-78
2023/01/31 02:45:07;;;;;;;152.18;145.70;;;9.40;96.60;;;;;;5047936;28;20041;-78
2023/01/31 02:48:17;;;;;;;150.93;144.45;;;9.40;96.60;;;;;;5049710;28;20029;-78
2023/01/31 02:50:43;;;;;;;151.73;145.23;;;9.40;96.70;;;;;;5030270;28;20027;-78
2023/01/31 02:53:47;;;;;;;150.73;144.32;;;9.40;96.70;;;;;;5045022;28;20033;-78
2023/01/31 02:56:28;;;;;;;151.45;144.98;;;9.40;96.70;;;;;;5049307;28;20412;-78
2023/01/31 02:59:21;;;;;;;150.73;144.27;;;9.40;96.70;;;;;;5048063;28;20063;-78
2023/01/31 03:01:56;;;;;;;146.63;140.35;;;9.40;96.70;;;;;;5049334;28;20025;-78
2023/01/31 03:04:22;;;;;;;150.50;144.02;;;9.50;96.70;;;;;;5049477;28;20378;-78
2023/01/31 03:06:53;;;;;;;146.88;140.48;;;9.50;96.70;;;;;;5049357;28;20031;-78
2023/01/31 03:09:59;;;;;;;147.15;140.77;;;9.50;96.70;;;;;;5048287;28;20441;-78
2023/01/31 03:12:49;;;;;;;148.40;142.00;;;9.50;96.70;;;;;;5049158;28;20095;-78
2023/01/31 03:18:30;;;;;;;149.05;142.65;;;9.50;96.70;;;;;;5048733;28;20036;-78
2023/01/31 03:21:09;;;;;;;150.80;144.30;;;9.50;96.70;;;;;;5047872;28;20075;-78
2023/01/31 03:23:37;;;;;;;149.55;143.13;;;9.50;96.70;;;;;;5049219;28;20436;-78
2023/01/31 03:26:06;;;;;;;147.82;141.45;;;9.50;96.70;;;;;;5047668;28;20069;-78
2023/01/31 03:28:39;;;;;;;146.90;140.55;;;9.50;96.70;;;;;;5049076;28;20056;-78
2023/01/31 03:31:24;;;;;;;149.15;142.70;;;9.60;96.70;;;;;;5047586;28;20029;-78
2023/01/31 03:33:54;;;;;;;148.40;142.00;;;9.60;96.70;;;;;;5049042;28;20481;-78
2023/01/31 03:36:27;;;;;;;148.32;141.93;;;9.60;96.70;;;;;;5047282;28;20414;-78
2023/01/31 03:39:13;;;;;;;149.45;142.95;;;9.60;96.70;;;;;;5047702;28;20033;-78
2023/01/31 03:42:06;;;;;;;148.48;142.02;;;9.60;96.70;;;;;;5047466;28;20492;-78
2023/01/31 03:44:55;;;;;;;150.98;144.48;;;9.60;96.70;;;;;;5048840;28;20029;-78
2023/01/31 03:47:35;;;;;;;152.65;146.05;;;9.60;96.70;;;;;;5047338;28;20028;-78
2023/01/31 03:50:09;;;;;;;152.27;145.75;;;9.60;96.70;;;;;;5048588;28;20033;-78
2023/01/31 03:52:39;;;;;;;152.07;145.57;;;9.70;96.80;;;;;;5047082;28;20048;-78
2023/01/31 03:55:37;;;;;;;152.57;145.98;;;9.70;96.70;;;;;;5047887;28;20028;-79
2023/01/31 03:58:05;;;;;;;151.20;144.70;;;9.70;96.80;;;;;;5044642;28;20489;-78
2023/01/31 04:00:35;;;;;;;155.15;148.43;;;9.70;96.80;;;;;;5048357;28;20457;-78
2023/01/31 04:03:14;;;;;;;151.18;144.60;;;9.80;96.80;;;;;;5048381;28;20100;-78
2023/01/31 04:05:40;;;;;;;149.30;142.85;;;9.80;96.80;;;;;;5047023;28;20029;-79
2023/01/31 04:08:06;;;;;;;155.88;149.13;;;9.80;96.80;;;;;;5014178;28;20040;-79
2023/01/31 04:10:31;;;;;;;150.77;144.27;;;9.80;96.80;;;;;;5048425;28;20043;-79
2023/01/31 04:12:57;;;;;;;145.45;139.25;;;9.80;96.80;;;;;;5048247;28;20067;-78
2023/01/31 04:15:23;;;;;;;146.45;140.25;;;9.80;96.70;;;;;;5046862;28;20069;-78
2023/01/31 04:17:48;;;;;;;138.88;132.98;;;9.80;96.80;;;;;;5047947;28;20040;-79
2023/01/31 04:20:15;;;;;;;127.90;122.60;;;9.70;96.80;;;;;;5048597;28;20039;-79
2023/01/31 04:22:40;;;;;;;121.80;116.80;;;9.70;96.70;;;;;;5046688;28;20033;-79
2023/01/31 04:25:07;;;;;;;109.90;105.50;;;9.70;96.70;;;;;;5048035;28;20537;-79
2023/01/31 04:27:32;;;;;;;;;;;9.60;96.70;;;;;;5030586;28;20021;-78
2023/01/31 04:29:58;;;;;;;104.95;100.75;;;9.60;96.80;;;;;;5046377;28;19915;-79
2023/01/31 04:32:23;;;;;;;99.20;95.30;;;9.50;96.70;;;;;;5046588;28;20040;-78
2023/01/31 04:34:49;;;;;;;93.50;89.90;;;9.40;96.70;;;;;;5047807;28;20036;-78
2023/01/31 04:37:15;;;;;;;94.53;90.82;;;9.20;96.60;;;;;;5029806;28;20029;-78
2023/01/31 04:39:41;;;;;;;87.45;84.05;;;9.10;96.70;;;;;;5029785;28;20051;-78
2023/01/31 04:42:06;;;;;;;77.65;74.70;;;9.10;96.70;;;;;;5046659;28;20035;-79
2023/01/31 04:44:32;;;;;;;76.47;73.57;;;9.00;96.70;;;;;;5029847;28;20040;-78
2023/01/31 04:46:58;;;;;;;73.50;70.70;;;8.90;96.80;;;;;;5047588;28;20247;-78
2023/01/31 04:49:24;;;;;;;63.90;61.50;;;8.90;96.80;;;;;;5047784;28;20090;-78
2023/01/31 04:51:49;;;;;;;68.55;65.95;;;8.80;96.80;;;;;;5029854;28;20033;-78
2023/01/31 04:54:15;;;;;;;63.60;61.20;;;8.80;96.80;;;;;;5046360;28;20033;-78
2023/01/31 04:56:41;;;;;;;61.03;58.72;;;8.70;97.00;;;;;;5046125;28;20053;-79
2023/01/31 04:59:07;;;;;;;62.95;60.55;;;8.70;96.80;;;;;;5047477;28;20543;-79
2023/01/31 05:01:32;;;;;;;61.28;58.97;;;8.70;96.80;;;;;;5029833;28;20096;-79
2023/01/31 05:03:58;;;;;;;61.03;58.72;;;8.60;96.80;;;;;;5029549;28;20039;-78
2023/01/31 05:06:24;;;;;;;59.72;57.53;;;8.60;96.80;;;;;;5047324;28;20029;-78
2023/01/31 05:08:51;;;;;;;59.55;57.35;;;8.50;96.80;;;;;;5049005;28;20707;-79
2023/01/31 05:11:17;;;;;;;60.00;57.80;;;8.50;96.80;;;;;;5050298;28;20029;-78
2023/01/31 05:13:44;;;;;;;59.13;56.92;;;8.40;96.80;;;;;;5050170;28;20418;-79
2023/01/31 05:16:11;;;;;;;59.00;56.80;;;8.40;96.80;;;;;;5051611;28;20111;-79
2023/01/31 05:18:37;;;;;;;56.85;54.75;;;8.40;96.80;;;;;;5050181;28;20107;-79
2023/01/31 05:21:05;;;;;;;59.60;57.40;;;8.40;96.80;;;;;;5051269;28;20025;-79
2023/01/31 05:23:31;;;;;;;57.33;55.22;;;8.30;96.70;;;;;;5051182;28;20469;-79
2023/01/31 05:25:57;;;;;;;;;;;8.30;96.70;;;;;;5051943;28;20438;-78
2023/01/31 05:28:24;;;;;;;56.38;54.28;;;8.20;96.70;;;;;;5051162;28;19950;-78
2023/01/31 05:30:51;;;;;;;59.50;57.30;;;8.20;96.70;;;;;;5051243;28;20029;-78
2023/01/31 05:33:19;;;;;;;57.53;55.40;;;8.20;96.70;;;;;;5049916;28;20029;-79
2023/01/31 05:35:48;;;;;;;60.15;57.92;;;8.10;96.70;;;;;;5051276;28;20035;-79
2023/01/31 05:38:14;;;;;;;61.72;59.42;;;8.10;96.70;;;;;;5049739;28;20037;-79
2023/01/31 05:40:39;;;;;;;58.10;55.90;;;8.00;96.70;;;;;;5049727;28;20029;-78
2023/01/31 05:43:05;;;;;;;61.65;59.35;;;8.00;96.70;;;;;;5050964;28;20021;-78
2023/01/31 05:45:31;;;;;;;64.22;61.83;;;8.00;96.70;;;;;;5050857;28;20025;-78
2023/01/31 05:47:58;;;;;;;62.60;60.25;;;8.00;96.80;;;;;;5032888;28;20037;-78
2023/01/31 05:50:24;;;;;;;63.90;61.50;;;8.00;96.80;;;;;;5049239;28;20037;-78
2023/01/31 05:52:55;;;;;;;64.30;61.90;;;8.00;96.80;;;;;;5049548;28;20054;-79
2023/01/31 05:55:20;;;;;;;63.13;60.72;;;8.00;96.70;;;;;;5049549;28;20041;-78
2023/01/31 05:57:47;;;;;;;65.25;62.85;;;8.10;96.70;;;;;;5049324;28;20040;-78
2023/01/31 06:00:14;;;;;;;68.80;66.20;;;8.00;96.70;;;;;;5050482;28;20041;-78
2023/01/31 06:02:40;;;;;;;73.95;71.15;;;8.00;96.60;;;;;;5049200;28;20025;-78
2023/01/31 06:05:07;;;;;;;74.35;71.55;;;8.00;96.60;;;;;;5049388;28;20025;-79
2023/01/31 06:07:33;;;;;;;78.35;75.38;;;7.90;96.60;;;;;;5049116;28;20104;-79
2023/01/31 06:09:59;;;;;;;81.70;78.60;;;7.90;96.60;;;;;;5049269;28;20104;-78
2023/01/31 06:12:25;;;;;;;85.05;81.78;;;7.80;96.60;;;;;;5048878;28;20033;-78
2023/01/31 06:14:50;;;;;;;85.40;82.10;;;7.80;96.60;;;;;;5050840;28;20094;-78
2023/01/31 06:17:16;;;;;;;92.80;89.20;;;7.80;96.60;;;;;;5048994;28;20033;-78
2023/01/31 06:19:42;;;;;;;93.90;90.30;;;7.80;96.70;;;;;;5049493;28;20029;-78
2023/01/31 06:22:08;;;;;;;93.40;89.80;;;7.70;96.70;;;;;;5048995;28;20037;-78
2023/01/31 06:24:34;;;;;;;94.15;90.53;;;7.70;96.70;;;;;;5049109;28;20021;-78
2023/01/31 06:26:59;;;;;;;95.30;91.60;;;7.70;96.70;;;;;;5048888;28;20033;-79
2023/01/31 06:29:25;;;;;;;93.57;89.97;;;7.70;96.70;;;;;;5049831;28;20025;-78
2023/01/31 06:31:52;;;;;;;92.60;89.00;;;7.70;96.80;;;;;;5049840;28;20532;-77
2023/01/31 06:34:19;;;;;;;88.97;85.57;;;7.80;96.90;;;;;;5050074;28;20025;-78
2023/01/31 06:36:44;;;;;;;89.55;86.15;;;8.00;96.90;;;;;;5015795;28;20041;-78
2023/01/31 06:39:12;;;;;;;84.22;81.03;;;8.00;96.90;;;;;;5048546;28;20040;-78
2023/01/31 06:41:38;;;;;;;77.30;74.40;;;8.10;96.90;;;;;;5049743;28;20036;-78
2023/01/31 06:44:04;;;;;;;76.97;74.07;;;8.20;96.90;;;;;;5032128;28;20025;-78
2023/01/31 06:46:29;;;;;;;74.93;72.13;;;8.30;96.80;;;;;;5049766;28;20032;-78
2023/01/31 06:48:55;;;;;;;73.68;70.88;;;8.30;96.70;;;;;;5049837;28;20051;-78
2023/01/31 06:51:21;;;;;;;71.95;69.25;;;8.30;96.70;;;;;;5048433;28;20037;-78
2023/01/31 06:53:46;;;;;;;71.00;68.30;;;8.30;96.80;;;;;;5049722;28;20036;-78
2023/01/31 06:56:12;;;;;;;71.30;68.60;;;8.30;96.80;;;;;;5031540;28;20037;-78
2023/01/31 06:58:38;;;;;;;64.75;62.30;;;8.30;96.80;;;;;;5049706;28;20029;-77
2023/01/31 07:01:05;;;;;;;;;;;8.30;96.80;;;;;;5015841;28;20037;-77
2023/01/31 07:03:30;;;;;;;63.97;61.58;;;8.30;96.70;;;;;;5049336;28;19908;-77
2023/01/31 07:05:56;;;;;;;63.05;60.65;;;8.30;96.60;;;;;;5048169;28;20032;-78
2023/01/31 07:08:22;;;;;;;64.68;62.25;;;8.30;96.70;;;;;;5031724;28;20033;-77
2023/01/31 07:10:48;;;;;;;68.00;65.40;;;8.20;96.70;;;;;;5047777;28;20116;-77
2023/01/31 07:13:14;;;;;;;63.88;61.47;;;8.20;96.70;;;;;;5047702;28;20123;-77
2023/01/31 07:15:40;;;;;;;68.57;65.97;;;8.20;96.70;;;;;;5047598;28;20046;-77
2023/01/31 07:18:06;;;;;;;;;;;8.10;96.70;;;;;;5031753;28;20037;-77
2023/01/31 07:20:31;;;;;;;65.90;63.40;;;8.10;96.70;;;;;;5047603;28;20289;-78
2023/01/31 07:22:58;;;;;;;68.03;65.43;;;8.10;96.70;;;;;;5014380;28;20500;-76
2023/01/31 07:25:25;;;;;;;63.30;60.90;;;8.10;96.70;;;;;;5048949;28;20486;-77
2023/01/31 07:27:50;;;;;;;57.05;54.85;;;8.10;96.70;;;;;;5047001;28;20036;-78
2023/01/31 07:30:16;;;;;;;57.08;54.88;;;8.10;96.80;;;;;;5047189;28;20021;-77
2023/01/31 07:32:42;;;;;;;59.72;57.42;;;8.10;96.90;;;;;;5014520;28;20041;-78
2023/01/31 07:35:08;;;;;;;53.25;51.25;;;8.10;96.90;;;;;;5047350;28;20509;-78
2023/01/31 07:37:34;;;;;;;;;;;8.20;97.10;;;;;;5048976;28;20385;-77
2023/01/31 07:39:59;;;;;;;57.30;55.10;;;8.30;96.90;;;;;;5046745;28;20278;-77
2023/01/31 07:42:27;;;;;;;53.20;51.20;;;8.30;96.80;;;;;;5029705;28;20445;-77
2023/01/31 07:44:52;;;;;;;55.28;53.17;;;8.30;96.90;;;;;;5047633;28;20068;-78
2023/01/31 07:47:18;;;;;;;56.67;54.58;;;8.30;96.90;;;;;;5046801;28;20049;-77
2023/01/31 07:49:44;;;;;;;56.30;54.20;;;8.40;96.90;;;;;;5048141;28;20500;-77
2023/01/31 07:52:09;;;;;;;57.85;55.65;;;8.50;96.80;;;;;;5048000;28;20032;-79
2023/01/31 07:54:35;;;;;;;58.83;56.63;;;8.50;96.80;;;;;;5046804;28;20034;-78
2023/01/31 07:57:01;;;;;;;60.25;57.95;;;8.40;96.70;;;;;;5030925;28;20080;-77
2023/01/31 07:59:26;;;;;;;61.67;59.38;;;8.40;96.70;;;;;;5030323;28;20033;-77
2023/01/31 08:04:36;;;;;;;63.10;60.70;;;8.20;96.70;;;;;;5047045;28;20056;-77
2023/01/31 08:07:04;;;;;;;63.05;60.65;;;8.20;96.80;;;;;;5045648;28;20025;-78
2023/01/31 08:09:30;;;;;;;60.80;58.47;;;8.20;96.80;;;;;;5029477;28;20048;-77
2023/01/31 08:11:56;;;;;;;61.60;59.20;;;8.20;96.80;;;;;;5045885;28;20025;-76
2023/01/31 08:14:24;;;;;;;59.78;57.47;;;8.20;96.80;;;;;;5029821;28;20043;-77
2023/01/31 08:16:50;;;;;;;58.67;56.47;;;8.30;96.80;;;;;;5045982;28;20116;-77
2023/01/31 08:19:16;;;;;;;57.85;55.65;;;8.30;96.80;;;;;;5047802;28;20116;-78
2023/01/31 08:21:42;;;;;;;56.85;54.65;;;8.30;96.80;;;;;;5046693;28;20121;-77
2023/01/31 08:24:08;;;;;;;53.80;51.80;;;8.40;96.80;;;;;;5046311;28;20444;-77
2023/01/31 08:26:34;;;;;;;46.38;44.67;;;8.50;96.80;;;;;;5046130;28;20454;-77
2023/01/31 08:29:00;;;;;;;44.75;43.05;;;8.50;96.70;;;;;;5046242;28;20120;-78
2023/01/31 08:31:27;;;;;;;45.28;43.58;;;8.50;96.70;;;;;;5029918;28;20064;-77
2023/01/31 08:33:53;;;;;;;48.03;46.20;;;8.40;96.60;;;;;;5046129;28;20121;-77
2023/01/31 08:36:25;;;;;;;48.45;46.65;;;8.30;96.60;;;;;;5047140;28;20087;-76
2023/01/31 08:38:51;;;;;;;46.92;45.13;;;8.20;96.70;;;;;;5046249;28;20032;-77
2023/01/31 08:41:18;;;;;;;;;;;8.20;96.70;;;;;;5045795;28;20041;-77
2023/01/31 08:43:45;;;;;;;47.25;45.45;;;8.20;96.80;;;;;;5047023;28;19968;-77
2023/01/31 08:46:11;;;;;;;48.78;46.88;;;8.20;96.80;;;;;;5046828;28;20544;-77
2023/01/31 08:48:37;;;;;;;49.10;47.20;;;8.20;96.80;;;;;;5045442;28;20071;-76
2023/01/31 08:51:05;;;;;;;48.88;46.97;;;8.10;96.70;;;;;;5047147;28;20388;-77
2023/01/31 08:53:31;;;;;;;48.95;47.05;;;8.10;96.70;;;;;;5047057;28;20025;-77
2023/01/31 08:56:03;;;;;;;49.17;47.28;;;8.10;96.70;;;;;;5045292;28;20562;-77
2023/01/31 08:58:31;;;;;;;49.63;47.72;;;8.10;96.80;;;;;;5028947;28;20064;-76
2023/01/31 09:01:05;;;;;;;50.65;48.75;;;8.20;96.80;;;;;;5043708;28;20498;-76
2023/01/31 09:03:31;;;;;;;49.35;47.45;;;8.20;96.80;;;;;;5031540;28;20045;-76
2023/01/31 09:06:01;;;;;;;48.80;47.00;;;8.20;96.80;;;;;;5033012;28;20021;-75
2023/01/31 09:08:28;;;;;;;45.55;43.85;;;8.30;96.90;;;;;;5032508;28;20064;-76
2023/01/31 09:10:54;;;;;;;43.75;42.13;;;8.40;97.00;;;;;;5032813;28;20029;-76
2023/01/31 09:13:21;;;;;;;45.75;44.05;;;8.50;97.00;;;;;;5037786;28;20404;-76
2023/01/31 09:15:46;;;;;;;43.33;41.72;;;8.70;97.00;;;;;;5039817;28;20094;-76
2023/01/31 09:18:12;;;;;;;41.67;40.08;;;8.80;96.90;;;;;;5040702;28;20029;-76
2023/01/31 09:20:38;;;;;;;40.40;38.90;;;8.80;96.80;;;;;;5021458;28;20037;-75
2023/01/31 09:23:03;;;;;;;38.75;37.25;;;8.90;96.80;;;;;;5000857;28;20639;-75
2023/01/31 09:25:29;;;;;;;39.08;37.58;;;8.90;96.80;;;;;;5012769;28;20185;-75
2023/01/31 09:27:55;;;;;;;34.70;33.40;;;9.00;96.80;;;;;;5035074;28;20079;-76
2023/01/31 09:30:21;;;;;;;29.10;28.00;;;9.10;96.90;;;;;;5033528;28;20048;-76
2023/01/31 09:32:48;;;;;;;27.85;26.75;;;9.30;97.20;;;;;;5034215;28;20044;-76
2023/01/31 09:35:15;;;;;;;26.67;25.67;;;9.60;97.10;;;;;;5035122;28;20075;-76
2023/01/31 09:37:41;;;;;;;25.48;24.48;;;9.70;96.90;;;;;;5036619;28;20088;-76
2023/01/31 09:40:14;;;;;;;25.80;24.80;;;9.70;96.70;;;;;;5034529;28;20439;-75
2023/01/31 09:42:43;;;;;;;24.17;23.25;;;9.60;96.60;;;;;;5035484;28;20030;-76
2023/01/31 09:45:17;;;;;;;23.02;22.13;;;9.60;96.70;;;;;;5031285;28;20025;-76
2023/01/31 09:47:49;;;;;;;22.05;21.15;;;9.60;96.70;;;;;;5033703;28;20032;-76
2023/01/31 09:50:26;;;;;;;19.25;18.45;;;9.60;96.80;;;;;;5035832;28;20381;-77
2023/01/31 09:52:52;;;;;;;;;;;9.70;97.00;;;;;;5031507;28;20541;-76
2023/01/31 09:55:25;;;;;;;11.35;10.85;;;10.10;97.60;;;;;;5038463;28;19909;-76
2023/01/31 09:58:20;;;;;;;9.80;9.30;;;10.60;97.60;;;;;;5040231;28;20056;-75
2023/01/31 10:01:04;;;;;;;7.85;7.45;;;10.80;97.40;;;;;;5039818;28;20013;-76
2023/01/31 10:03:42;;;;;;;8.10;7.70;;;11.30;97.50;;;;;;5034302;28;20024;-76
2023/01/31 10:06:27;;;;;;;6.90;6.50;;;11.80;97.60;;;;;;5039362;28;20017;-76
2023/01/31 10:09:09;;;;;;;5.53;5.22;;;12.30;97.60;;;;;;5035713;28;20022;-76
2023/01/31 10:11:44;;;;;;;3.50;3.20;;;12.80;97.70;;;;;;5035200;28;20029;-79
2023/01/31 10:14:31;;;;;;;2.53;2.33;;;13.20;97.60;;;;;;5030359;28;20187;-79
2023/01/31 10:17:10;;;;;;;;;;;13.60;97.40;;;;;;5032067;28;20064;-78
2023/01/31 10:19:46;;;;;;;1.35;1.25;;;13.80;97.20;;;;;;5041475;28;19909;-77
2023/01/31 10:22:20;;;;;;;0.90;0.90;;;14.00;97.30;;;;;;5032172;28;20025;-77
2023/01/31 10:24:54;;;;;;;0.40;0.40;;;14.30;97.30;;;;;;5031930;28;20014;-77
2023/01/31 10:27:44;;;;;;;0.30;0.30;;;14.50;97.40;;;;;;5043459;28;20021;-79
2023/01/31 10:30:20;;;;;;;0.08;0.08;;;14.50;97.00;;;;;;5010898;28;20022;-79
2023/01/31 10:32:50;;;;;;;0.30;0.30;;;14.10;96.40;;;;;;5034995;28;20060;-80
2023/01/31 10:35:26;;;;;;;0.15;0.15;;;13.70;96.80;;;;;;5031546;28;20113;-77
2023/01/31 10:38:00;;;;;;;0.00;0.00;;;13.80;97.30;;;;;;5032540;28;20108;-79
2023/01/31 10:40:34;;;;;;;0.00;0.00;;;13.70;96.80;;;;;;5050420;28;20541;-78
2023/01/31 10:43:08;;;;;;;0.10;0.10;;;13.10;96.20;;;;;;5050317;28;20442;-77
2023/01/31 10:45:37;;;;;;;0.00;0.00;;;12.50;96.30;;;;;;5050145;28;20046;-78
2023/01/31 10:48:11;;;;;;;0.13;0.13;;;12.00;96.40;;;;;;5017605;28;20025;-78
2023/01/31 10:50:44;;;;;;;0.10;0.10;;;11.60;96.60;;;;;;5048239;28;20390;-78
2023/01/31 10:53:48;;;;;;;0.10;0.10;;;11.30;96.80;;;;;;5049304;28;20024;-78
2023/01/31 10:56:34;;;;;;;0.30;0.30;;;11.10;96.90;;;;;;5008969;28;20121;-78
2023/01/31 10:59:06;;;;;;;0.30;0.30;;;11.00;97.10;;;;;;5012986;28;20608;-79
2023/01/31 11:01:34;;;;;;;0.20;0.20;;;11.30;97.70;;;;;;5009831;28;20133;-76
2023/01/31 11:04:01;;;;;;;0.10;0.10;;;11.80;98.10;;;;;;5011259;28;20026;-72
2023/01/31 11:06:27;;;;;;;0.10;0.10;;;12.70;98.50;;;;;;5010778;28;20026;-79
2023/01/31 11:08:56;;;;;;;0.10;0.10;;;13.30;98.00;;;;;;5011495;28;20129;-80
2023/01/31 11:11:25;;;;;;;0.10;0.10;;;13.60;97.80;;;;;;5009713;28;20030;-77
2023/01/31 11:14:04;;;;;;;0.10;0.10;;;14.10;97.80;;;;;;5010295;28;20079;-78
2023/01/31 11:16:35;;;;;;;0.32;0.32;;;14.50;97.70;;;;;;5010972;28;20046;-79
2023/01/31 11:19:03;;;;;;;0.00;0.00;;;14.80;97.60;;;;;;5011447;28;20022;-79
2023/01/31 11:21:33;;;;;;;0.20;0.20;;;15.00;97.50;;;;;;5011186;28;20051;-78
2023/01/31 11:24:14;;;;;;;0.00;0.00;;;15.30;97.70;;;;;;5011124;28;20029;-80
2023/01/31 11:26:52;;;;;;;0.00;0.00;;;15.60;97.50;;;;;;5010799;28;20025;-78
2023/01/31 11:29:26;;;;;;;0.00;0.00;;;15.30;96.70;;;;;;5010978;28;20026;-74
2023/01/31 11:31:53;;;;;;;0.00;0.00;;;14.80;96.60;;;;;;5008712;28;20469;-77
2023/01/31 11:34:25;;;;;;;0.00;0.00;;;14.60;97.30;;;;;;5009884;28;20037;-79
2023/01/31 11:36:51;;;;;;;0.00;0.00;;;14.70;97.50;;;;;;5010244;28;20368;-77
2023/01/31 11:39:28;;;;;;;0.00;0.00;;;15.00;97.70;;;;;;5009681;28;20029;-78
2023/01/31 11:41:54;;;;;;;0.20;0.20;;;15.00;97.10;;;;;;5010016;28;20030;-78
2023/01/31 11:44:22;;;;;;;0.00;0.00;;;14.90;97.50;;;;;;5009643;28;20113;-75
2023/01/31 11:46:56;;;;;;;0.00;0.00;;;14.80;97.20;;;;;;5019532;28;20079;-78
2023/01/31 11:49:31;;;;;;;0.00;0.00;;;14.70;97.10;;;;;;5029600;28;20017;-76
2023/01/31 11:52:00;;;;;;;0.00;0.00;;;14.80;97.40;;;;;;5028719;28;20260;-78
2023/01/31 11:54:32;;;;;;;0.00;0.00;;;15.00;97.70;;;;;;5029700;28;20029;-79
2023/01/31 11:57:00;;;;;;;0.00;0.00;;;15.20;97.60;;;;;;5030108;28;20045;-78
2023/01/31 11:59:29;;;;;;;0.00;0.00;;;15.40;97.50;;;;;;5029650;28;20029;-78
2023/01/31 12:01:58;;;;;;;0.00;0.00;;;15.50;97.60;;;;;;5029785;28;20040;-79
2023/01/31 12:04:40;;;;;;;0.00;0.00;;;15.60;97.50;;;;;;5028857;28;20030;-77
2023/01/31 12:07:22;;;;;;;0.47;0.40;;;15.40;96.80;;;;;;5030795;28;20042;-79
2023/01/31 12:09:48;;;;;;;0.00;0.00;;;14.80;96.10;;;;;;5029789;28;20026;-75
2023/01/31 12:12:30;;;;;;;0.00;0.00;;;14.30;96.50;;;;;;5028797;28;20123;-75
2023/01/31 12:15:01;;;;;;;0.00;0.00;;;14.10;97.10;;;;;;5029029;28;20036;-81
2023/01/31 12:17:30;;;;;;;0.00;0.00;;;14.20;97.50;;;;;;5029619;28;20021;-75
2023/01/31 12:20:11;;;;;;;0.00;0.00;;;14.50;97.70;;;;;;5028523;28;20021;-76
2023/01/31 12:22:45;;;;;;;0.00;0.00;;;14.80;97.90;;;;;;5029858;28;20369;-79
2023/01/31 12:25:31;;;;;;;0.00;0.00;;;15.10;97.90;;;;;;5028797;28;20466;-77
2023/01/31 12:28:21;;;;;;;0.00;0.00;;;15.50;98.00;;;;;;5029704;28;20030;-76
2023/01/31 12:30:54;;;;;;;0.00;0.00;;;15.70;97.90;;;;;;5028198;28;20030;-78
2023/01/31 12:33:44;;;;;;;0.00;0.00;;;15.90;97.60;;;;;;5032721;28;20043;-77
2023/01/31 12:36:36;;;;;;;0.70;0.60;;;15.80;97.20;;;;;;5029478;28;20628;-78
2023/01/31 12:39:34;;;;;;;0.00;0.00;;;15.60;97.40;;;;;;5029161;28;20025;-80
2023/01/31 12:42:17;;;;;;;0.00;0.00;;;15.60;97.70;;;;;;5028903;28;20582;-77
2023/01/31 12:45:22;;;;;;;0.00;0.00;;;15.70;97.70;;;;;;5029610;28;20029;-76
2023/01/31 12:48:26;;;;;;;0.00;0.00;;;15.70;97.60;;;;;;5028034;28;20371;-76
2023/01/31 12:51:10;;;;;;;0.00;0.00;;;15.60;97.50;;;;;;5017458;28;20149;-74
2023/01/31 12:54:00;;;;;;;0.43;0.43;;;15.20;96.80;;;;;;5029972;28;20029;-80
2023/01/31 12:56:44;;;;;;;0.00;0.00;;;14.70;96.70;;;;;;5030364;28;20099;-79
2023/01/31 12:59:45;;;;;;;0.00;0.00;;;14.30;96.90;;;;;;5027728;28;20113;-81
2023/01/31 13:02:36;;;;;;;0.00;0.00;;;14.10;96.90;;;;;;5029494;28;20030;-81
2023/01/31 13:05:10;;;;;;;0.00;0.00;;;13.90;96.80;;;;;;5029640;28;20458;-81